Time;durP1;ratioP1;P1;durP2;ratioP2;P2;SDS_P1;SDS_P2;PMS_P1;PMS_P2;Temp;Humidity;BMP_temperature;BMP_pressure;BME280_temperature;BME280_humidity;BME280_pressure;Samples;Min_cycle;Max_cycle;Signal;HPM_P1;HPM_P2
2023/06/10 00:02:22;;;;;;;7.40;5.38;;;19.70;99.90;;;;;;5055202;28;20196;-61
2023/06/10 00:04:49;;;;;;;6.22;4.97;;;19.70;99.90;;;;;;5059511;28;20718;-61
2023/06/10 00:07:17;;;;;;;5.95;4.88;;;19.90;99.90;;;;;;5051658;28;20214;-60
2023/06/10 00:09:44;;;;;;;6.95;4.80;;;19.80;99.90;;;;;;5056265;28;20679;-61
2023/06/10 00:12:11;;;;;;;6.22;5.30;;;19.90;99.90;;;;;;5044679;28;20774;-60
2023/06/10 00:14:42;;;;;;;6.85;5.18;;;19.90;99.90;;;;;;5064127;28;20688;-61
2023/06/10 00:17:09;;;;;;;8.68;4.90;;;20.00;99.90;;;;;;5057670;28;20218;-60
2023/06/10 00:19:41;;;;;;;7.38;5.82;;;20.00;99.90;;;;;;5038886;28;20289;-60
2023/06/10 00:22:10;;;;;;;6.85;5.15;;;20.20;99.90;;;;;;5060319;28;20287;-59
2023/06/10 00:24:38;;;;;;;7.22;5.05;;;20.20;99.90;;;;;;5045037;28;20187;-60
2023/06/10 00:27:06;;;;;;;6.18;5.05;;;20.20;99.90;;;;;;5039009;28;20728;-61
2023/06/10 00:29:34;;;;;;;8.55;5.85;;;20.20;99.90;;;;;;5051535;28;20195;-61
2023/06/10 00:32:01;;;;;;;6.40;5.53;;;20.20;99.90;;;;;;5051277;28;20222;-60
2023/06/10 00:34:28;;;;;;;6.57;5.50;;;20.00;99.90;;;;;;5054567;28;20203;-62
2023/06/10 00:36:58;;;;;;;6.90;5.22;;;20.20;99.90;;;;;;5048090;28;20203;-62
2023/06/10 00:39:25;;;;;;;8.63;5.68;;;20.00;99.90;;;;;;5047649;28;20666;-61
2023/06/10 00:41:52;;;;;;;5.95;5.35;;;20.00;99.90;;;;;;5041410;28;20249;-62
2023/06/10 00:44:19;;;;;;;6.43;4.93;;;20.00;99.90;;;;;;5058895;28;20183;-62
2023/06/10 00:46:46;;;;;;;6.95;5.13;;;20.10;99.90;;;;;;5067676;28;20603;-62
2023/06/10 00:49:15;;;;;;;6.93;4.90;;;20.20;99.90;;;;;;5066929;28;20187;-63
2023/06/10 00:51:42;;;;;;;6.30;5.07;;;20.20;99.90;;;;;;5067541;28;20198;-63
2023/06/10 00:54:13;;;;;;;7.28;5.28;;;20.10;99.90;;;;;;5064473;28;20202;-65
2023/06/10 00:56:42;;;;;;;6.38;5.13;;;20.00;99.90;;;;;;5067245;28;20195;-66
2023/06/10 00:59:10;;;;;;;5.63;4.60;;;20.00;99.90;;;;;;5052127;28;20187;-66
2023/06/10 01:01:38;;;;;;;5.88;4.78;;;20.00;99.90;;;;;;5060564;28;20206;-67
2023/06/10 01:04:05;;;;;;;6.85;4.82;;;20.00;99.90;;;;;;5022559;23;20248;-83
2023/06/10 01:07:19;;;;;;;7.63;5.53;;;20.00;99.90;;;;;;5007159;28;20566;-81
2023/06/10 01:10:01;;;;;;;7.50;5.40;;;19.90;99.90;;;;;;4975899;28;20209;-83
2023/06/10 01:12:39;;;;;;;6.07;4.93;;;19.80;99.90;;;;;;4990975;28;20705;-80
2023/06/10 01:15:08;;;;;;;10.10;5.25;;;19.70;99.90;;;;;;4992128;28;20272;-82
2023/06/10 01:17:55;;;;;;;6.18;5.18;;;19.60;99.90;;;;;;4985415;28;20636;-83
2023/06/10 01:20:24;;;;;;;8.32;5.32;;;19.70;99.90;;;;;;4972857;28;20220;-84
2023/06/10 01:22:54;;;;;;;5.75;5.15;;;19.60;99.90;;;;;;4977592;28;20220;-83
2023/06/10 01:25:28;;;;;;;7.15;5.00;;;19.60;99.90;;;;;;4961554;28;20198;-81
2023/06/10 01:28:18;;;;;;;9.60;5.20;;;19.60;99.90;;;;;;4980877;28;20248;-82
2023/06/10 01:31:11;;;;;;;6.78;5.28;;;19.60;99.90;;;;;;4971197;28;20216;-84
2023/06/10 01:33:43;;;;;;;7.05;5.13;;;19.60;99.90;;;;;;4982668;28;20267;-82
2023/06/10 01:36:12;;;;;;;6.35;4.40;;;19.60;99.90;;;;;;4988232;28;20194;-81
2023/06/10 01:38:44;;;;;;;6.25;4.82;;;19.60;99.90;;;;;;4971389;28;20198;-80
2023/06/10 01:41:16;;;;;;;5.82;5.20;;;19.60;99.90;;;;;;4987750;28;20225;-80
2023/06/10 01:43:45;;;;;;;8.43;5.07;;;19.60;99.90;;;;;;4987914;28;20200;-80
2023/06/10 01:46:14;;;;;;;5.65;4.72;;;19.60;99.90;;;;;;4988396;28;20193;-83
2023/06/10 01:48:42;;;;;;;6.28;4.85;;;19.50;99.90;;;;;;4975605;28;20208;-81
2023/06/10 01:51:09;;;;;;;7.70;5.68;;;19.50;99.90;;;;;;4984214;28;20220;-81
2023/06/10 01:53:36;;;;;;;5.18;4.65;;;19.50;99.90;;;;;;4988739;28;20717;-86
2023/06/10 01:56:04;;;;;;;6.63;4.53;;;19.50;99.90;;;;;;5002564;28;20190;-84
2023/06/10 01:58:31;;;;;;;7.80;5.72;;;19.50;99.90;;;;;;4989173;28;20248;-85
2023/06/10 02:00:58;;;;;;;23.25;13.95;;;19.40;99.90;;;;;;4989198;28;20757;-83
2023/06/10 02:03:25;;;;;;;24.55;14.63;;;19.40;99.90;;;;;;4987351;28;22418;-85
2023/06/10 02:05:55;;;;;;;41.65;24.27;;;19.30;99.90;;;;;;4972622;28;20201;-85
2023/06/10 02:08:23;;;;;;;12.05;9.95;;;19.50;99.90;;;;;;4987486;28;20190;-85
2023/06/10 02:10:50;;;;;;;10.10;6.53;;;19.50;99.90;;;;;;4988725;28;20534;-84
2023/06/10 02:13:17;;;;;;;7.72;5.82;;;19.50;99.90;;;;;;4986526;28;20217;-84
2023/06/10 02:15:47;;;;;;;18.05;12.57;;;19.50;99.90;;;;;;4972057;28;20233;-85
2023/06/10 02:18:16;;;;;;;18.17;11.55;;;19.20;99.90;;;;;;4970336;28;20820;-84
2023/06/10 02:20:43;;;;;;;15.95;11.85;;;19.20;99.90;;;;;;4983131;28;20197;-85
2023/06/10 02:23:10;;;;;;;10.57;6.75;;;19.20;99.90;;;;;;4998350;28;20209;-85
2023/06/10 02:25:37;;;;;;;6.22;5.18;;;19.10;99.90;;;;;;4990983;28;20194;-84
2023/06/10 02:28:06;;;;;;;12.65;7.40;;;19.00;99.90;;;;;;4990897;28;20651;-84
2023/06/10 02:30:34;;;;;;;10.60;6.30;;;19.00;99.90;;;;;;4985834;28;20198;-85
2023/06/10 02:33:02;;;;;;;11.02;8.20;;;19.00;99.90;;;;;;4988967;28;20280;-84
2023/06/10 02:35:29;;;;;;;10.32;6.40;;;19.00;99.90;;;;;;4983547;28;20209;-82
2023/06/10 02:37:56;;;;;;;10.88;6.82;;;18.90;99.90;;;;;;4972551;28;20696;-80
2023/06/10 02:40:24;;;;;;;6.18;5.13;;;18.90;99.90;;;;;;4988695;28;20297;-85
2023/06/10 02:42:51;;;;;;;6.90;5.22;;;18.90;99.90;;;;;;4989209;28;20244;-84
2023/06/10 02:45:19;;;;;;;7.03;4.97;;;19.00;99.90;;;;;;4987135;28;20684;-87
2023/06/10 02:47:46;;;;;;;12.55;5.00;;;19.00;99.90;;;;;;4989412;28;20201;-83
2023/06/10 02:50:14;;;;;;;4.90;4.40;;;19.10;99.90;;;;;;4986575;28;20182;-84
2023/06/10 02:52:59;;;;;;;5.05;4.45;;;19.00;99.90;;;;;;4974241;28;20205;-83
2023/06/10 02:55:27;;;;;;;6.53;4.35;;;19.00;99.90;;;;;;4981412;28;20530;-82
2023/06/10 02:58:00;;;;;;;5.45;3.55;;;18.90;99.90;;;;;;4985237;28;20580;-83
2023/06/10 03:00:28;;;;;;;5.88;4.55;;;19.20;99.90;;;;;;4980220;28;20206;-79
2023/06/10 03:02:57;;;;;;;7.05;4.22;;;18.80;99.90;;;;;;4985278;28;20218;-81
2023/06/10 03:05:32;;;;;;;5.97;4.22;;;19.00;99.90;;;;;;4987540;28;20197;-84
2023/06/10 03:08:02;;;;;;;5.07;4.00;;;19.00;99.90;;;;;;4982013;28;20678;-80
2023/06/10 03:10:32;;;;;;;4.90;3.40;;;19.10;99.90;;;;;;5006641;28;20583;-78
2023/06/10 03:13:00;;;;;;;4.93;3.65;;;19.20;99.90;;;;;;4990921;28;20201;-81
2023/06/10 03:15:28;;;;;;;6.80;3.90;;;19.20;99.90;;;;;;4974072;28;20200;-79
2023/06/10 03:17:56;;;;;;;6.60;4.10;;;19.20;99.90;;;;;;4990018;28;21231;-79
2023/06/10 03:20:23;;;;;;;5.03;3.65;;;19.10;99.90;;;;;;4987130;28;20244;-78
2023/06/10 03:22:51;;;;;;;4.47;3.30;;;19.10;99.90;;;;;;4976027;28;20212;-77
2023/06/10 03:25:21;;;;;;;5.80;3.78;;;19.20;99.90;;;;;;4990568;28;20201;-85
2023/06/10 03:27:52;;;;;;;5.15;3.85;;;19.10;99.90;;;;;;4965965;28;20193;-86
2023/06/10 03:30:20;;;;;;;5.65;3.67;;;19.10;99.90;;;;;;4988606;28;20247;-86
2023/06/10 03:32:49;;;;;;;5.05;3.90;;;19.20;99.90;;;;;;4990984;28;20207;-86
2023/06/10 03:35:18;;;;;;;3.97;3.15;;;19.30;99.90;;;;;;4990337;28;20200;-84
2023/06/10 03:37:46;;;;;;;6.65;4.03;;;19.30;99.90;;;;;;5005512;28;20189;-85
2023/06/10 03:40:13;;;;;;;5.68;3.47;;;19.30;99.90;;;;;;4985016;28;20217;-85
2023/06/10 03:42:44;;;;;;;5.28;3.78;;;19.30;99.90;;;;;;4991200;28;20224;-86
2023/06/10 03:45:14;;;;;;;4.43;3.28;;;19.40;99.90;;;;;;4983551;28;20196;-84
2023/06/10 03:47:43;;;;;;;6.97;3.95;;;19.30;99.90;;;;;;4990271;28;20196;-84
2023/06/10 03:50:13;;;;;;;4.88;3.40;;;19.40;99.90;;;;;;4988918;28;20661;-87
2023/06/10 03:52:44;;;;;;;4.28;3.33;;;19.50;99.90;;;;;;4998535;28;20209;-85
2023/06/10 03:55:13;;;;;;;3.65;3.13;;;19.80;99.90;;;;;;4987736;28;20209;-86
2023/06/10 03:57:43;;;;;;;4.40;2.92;;;19.90;99.90;;;;;;4989021;28;20193;-85
2023/06/10 04:00:11;;;;;;;5.70;3.08;;;20.10;99.90;;;;;;4987869;28;20201;-83
2023/06/10 04:02:47;;;;;;;6.22;3.10;;;20.00;99.90;;;;;;4990472;28;20223;-81
2023/06/10 04:05:36;;;;;;;4.47;3.20;;;20.20;99.90;;;;;;5004328;28;20215;-80
2023/06/10 04:08:05;;;;;;;4.97;3.08;;;20.70;99.90;;;;;;5005310;28;20185;-79
2023/06/10 04:10:33;;;;;;;4.85;3.20;;;20.90;99.90;;;;;;4966325;28;20196;-78
2023/06/10 04:13:00;;;;;;;7.65;3.35;;;20.90;99.90;;;;;;4970438;28;20201;-79
2023/06/10 04:15:33;;;;;;;5.55;3.22;;;20.80;99.90;;;;;;4986353;28;20211;-80
2023/06/10 04:18:04;;;;;;;4.50;2.70;;;20.90;99.90;;;;;;5003209;28;20732;-81
2023/06/10 04:20:33;;;;;;;4.75;3.10;;;21.20;99.90;;;;;;4986912;28;20209;-80
2023/06/10 04:23:01;;;;;;;4.88;3.15;;;21.40;99.90;;;;;;4987280;28;20224;-81
2023/06/10 04:25:30;;;;;;;5.05;3.03;;;21.60;99.90;;;;;;4986950;28;20212;-81
2023/06/10 04:27:57;;;;;;;5.18;3.30;;;22.00;99.90;;;;;;4988956;28;20255;-79
2023/06/10 04:30:25;;;;;;;4.38;3.25;;;22.50;99.90;;;;;;4987440;28;20288;-79
2023/06/10 04:32:54;;;;;;;6.10;3.08;;;22.60;99.90;;;;;;4972010;28;20202;-79
2023/06/10 04:35:21;;;;;;;3.95;3.15;;;22.80;99.90;;;;;;4989842;28;20671;-79
2023/06/10 04:37:49;;;;;;;4.15;3.10;;;23.00;99.90;;;;;;4988441;28;20221;-81
2023/06/10 04:40:16;;;;;;;5.45;3.22;;;23.00;99.90;;;;;;4987913;28;20215;-80
2023/06/10 04:42:45;;;;;;;5.68;3.10;;;23.40;99.90;;;;;;4989746;28;20570;-80
2023/06/10 04:45:12;;;;;;;3.72;2.58;;;23.40;99.90;;;;;;4989257;28;20195;-80
2023/06/10 04:47:40;;;;;;;4.13;2.90;;;23.80;99.90;;;;;;4988891;28;20193;-80
2023/06/10 04:50:08;;;;;;;3.78;2.63;;;23.70;99.90;;;;;;4981560;28;20209;-79
2023/06/10 04:52:36;;;;;;;5.88;2.72;;;24.00;99.90;;;;;;4989163;28;20815;-81
2023/06/10 04:55:04;;;;;;;4.30;2.83;;;24.40;99.90;;;;;;4996978;28;20201;-80
2023/06/10 04:57:31;;;;;;;2.97;2.42;;;24.60;99.90;;;;;;5006782;28;20201;-79
2023/06/10 04:59:58;;;;;;;3.75;2.83;;;24.60;99.90;;;;;;4987214;28;20205;-79
2023/06/10 05:02:26;;;;;;;4.13;2.83;;;25.00;99.90;;;;;;4973538;28;20217;-80
2023/06/10 05:04:54;;;;;;;4.40;3.38;;;25.00;99.90;;;;;;4988448;28;20228;-79
2023/06/10 05:07:21;;;;;;;4.85;2.22;;;24.90;99.90;;;;;;4991067;28;20688;-79
2023/06/10 05:09:49;;;;;;;4.60;3.42;;;24.60;99.90;;;;;;4990654;28;20217;-78
2023/06/10 05:12:16;;;;;;;4.07;2.60;;;24.50;99.90;;;;;;4973633;28;20201;-78
2023/06/10 05:14:44;;;;;;;4.32;3.00;;;24.60;99.90;;;;;;4973188;28;20193;-78
2023/06/10 05:17:12;;;;;;;7.57;3.30;;;24.90;99.90;;;;;;4990783;28;20193;-81
2023/06/10 05:19:41;;;;;;;5.65;2.33;;;25.10;99.90;;;;;;4995282;28;20694;-79
2023/06/10 05:22:08;;;;;;;5.50;2.88;;;25.40;99.90;;;;;;5008467;28;20284;-78
2023/06/10 05:24:35;;;;;;;4.60;2.33;;;26.00;99.90;;;;;;5004702;28;20201;-78
2023/06/10 05:27:02;;;;;;;4.15;2.88;;;25.50;99.90;;;;;;5008280;28;20656;-77
2023/06/10 05:29:29;;;;;;;4.25;2.75;;;24.60;99.20;;;;;;4992850;28;20796;-78
2023/06/10 05:31:57;;;;;;;3.60;2.60;;;24.60;99.90;;;;;;4993456;28;20432;-78
2023/06/10 05:34:24;;;;;;;5.88;3.15;;;24.60;99.90;;;;;;5007299;28;20683;-79
2023/06/10 05:36:52;;;;;;;6.07;2.80;;;25.20;99.90;;;;;;4991681;28;20189;-78
2023/06/10 05:39:19;;;;;;;3.17;2.42;;;25.90;99.90;;;;;;4983959;28;20197;-81
2023/06/10 05:41:46;;;;;;;5.05;2.97;;;26.30;99.90;;;;;;5011449;28;20193;-82
2023/06/10 05:44:13;;;;;;;4.80;2.35;;;26.20;99.90;;;;;;4992558;28;20239;-82
2023/06/10 05:46:40;;;;;;;4.45;2.33;;;25.90;99.90;;;;;;4993203;28;20204;-82
2023/06/10 05:49:08;;;;;;;3.80;2.72;;;25.50;99.90;;;;;;4995788;28;20230;-81
2023/06/10 05:51:36;;;;;;;4.85;2.67;;;25.50;99.90;;;;;;4992306;28;20211;-81
2023/06/10 05:54:04;;;;;;;4.03;2.30;;;25.90;99.90;;;;;;4992619;28;20193;-81
2023/06/10 05:56:31;;;;;;;2.78;2.33;;;26.40;99.90;;;;;;4991244;28;20208;-80
2023/06/10 05:58:58;;;;;;;4.18;2.35;;;26.70;99.90;;;;;;4975410;28;20197;-78
2023/06/10 06:01:26;;;;;;;4.72;2.88;;;27.20;99.90;;;;;;4988053;28;20661;-80
2023/06/10 06:03:53;;;;;;;4.68;2.58;;;26.90;99.90;;;;;;4990203;28;20259;-79
2023/06/10 06:06:20;;;;;;;3.58;2.60;;;26.60;99.90;;;;;;4992653;28;20201;-79
2023/06/10 06:08:48;;;;;;;4.43;2.60;;;27.30;99.90;;;;;;4971857;28;20292;-79
2023/06/10 06:11:15;;;;;;;4.03;2.30;;;27.30;99.90;;;;;;4985228;28;20529;-79
2023/06/10 06:13:42;;;;;;;3.17;2.45;;;27.90;99.90;;;;;;4990190;28;20200;-80
2023/06/10 06:16:09;;;;;;;5.60;2.28;;;28.00;99.90;;;;;;5008000;28;20271;-78
2023/06/10 06:18:36;;;;;;;3.65;2.40;;;28.30;99.90;;;;;;4988804;28;20197;-77
2023/06/10 06:21:03;;;;;;;3.67;2.83;;;28.60;99.90;;;;;;4978780;28;20235;-77
2023/06/10 06:23:30;;;;;;;6.50;2.53;;;28.60;99.90;;;;;;4991515;28;20654;-82
2023/06/10 06:25:58;;;;;;;5.00;2.40;;;28.30;99.90;;;;;;4989737;28;20240;-81
2023/06/10 06:28:28;;;;;;;5.95;3.03;;;28.30;99.90;;;;;;4990744;28;20300;-81
2023/06/10 06:30:57;;;;;;;3.50;2.50;;;28.70;99.90;;;;;;5008304;28;20276;-79
2023/06/10 06:33:26;;;;;;;3.35;2.25;;;28.90;99.90;;;;;;4989367;28;20275;-77
2023/06/10 06:35:53;;;;;;;2.78;2.20;;;29.10;99.90;;;;;;4988904;28;20197;-79
2023/06/10 06:38:20;;;;;;;4.10;2.40;;;29.20;99.90;;;;;;4990535;28;20192;-79
2023/06/10 06:40:47;;;;;;;3.05;2.03;;;29.70;99.90;;;;;;5005897;28;20216;-80
2023/06/10 06:43:14;;;;;;;5.43;3.17;;;28.40;99.90;;;;;;5007818;28;20923;-81
2023/06/10 06:45:57;;;;;;;3.35;2.42;;;28.40;99.90;;;;;;4991814;28;20238;-80
2023/06/10 06:48:24;;;;;;;3.20;2.10;;;29.20;99.90;;;;;;4975862;28;20204;-82
2023/06/10 06:50:52;;;;;;;5.10;2.08;;;28.80;99.90;;;;;;4975104;28;20627;-82
2023/06/10 06:53:20;;;;;;;6.00;2.58;;;28.50;99.90;;;;;;4999836;28;20604;-82
2023/06/10 06:55:47;;;;;;;2.17;1.98;;;28.70;99.90;;;;;;4988437;28;20258;-80
2023/06/10 06:58:14;;;;;;;3.92;2.35;;;30.00;99.90;;;;;;5005925;28;20579;-77
2023/06/10 07:00:42;;;;;;;3.83;2.40;;;30.50;99.90;;;;;;4988572;28;20236;-79
2023/06/10 07:03:09;;;;;;;3.30;2.50;;;31.40;98.60;;;;;;4987969;28;20225;-80
2023/06/10 07:05:36;;;;;;;3.78;2.45;;;31.30;98.10;;;;;;4990125;28;20205;-81
2023/06/10 07:08:04;;;;;;;4.80;2.15;;;31.00;98.30;;;;;;4980068;28;20203;-81
2023/06/10 07:10:33;;;;;;;2.70;2.50;;;31.50;98.00;;;;;;4990667;28;20617;-80
2023/06/10 07:13:00;;;;;;;5.70;2.20;;;30.30;97.20;;;;;;4984582;28;20201;-79
2023/06/10 07:15:27;;;;;;;5.50;2.50;;;31.30;99.00;;;;;;4984704;28;20235;-79
2023/06/10 07:17:55;;;;;;;4.60;2.35;;;32.40;97.80;;;;;;4988921;28;20209;-80
2023/06/10 07:20:22;;;;;;;5.78;2.45;;;32.70;97.10;;;;;;4989554;28;20240;-80
2023/06/10 07:22:49;;;;;;;2.78;2.20;;;32.90;97.30;;;;;;4989850;28;20212;-80
2023/06/10 07:25:17;;;;;;;4.05;2.38;;;32.60;95.70;;;;;;4972062;28;20219;-78
2023/06/10 07:27:44;;;;;;;3.97;2.40;;;32.30;95.90;;;;;;4987762;28;20208;-79
2023/06/10 07:30:11;;;;;;;5.55;2.45;;;32.40;95.60;;;;;;5007611;28;20684;-80
2023/06/10 07:32:38;;;;;;;3.65;2.28;;;32.70;95.60;;;;;;4983195;28;20663;-78
2023/06/10 07:35:09;;;;;;;4.05;2.35;;;33.30;95.40;;;;;;4985040;28;20197;-77
2023/06/10 07:37:37;;;;;;;3.22;2.10;;;33.00;95.00;;;;;;4989708;28;20212;-79
2023/06/10 07:40:05;;;;;;;5.28;2.15;;;34.00;95.20;;;;;;4989271;28;20201;-78
2023/06/10 07:42:34;;;;;;;4.60;2.65;;;34.40;94.00;;;;;;4986821;28;20201;-74
2023/06/10 07:45:01;;;;;;;3.03;2.53;;;34.10;93.30;;;;;;4988949;28;20276;-76
2023/06/10 07:47:29;;;;;;;5.50;1.98;;;32.90;92.70;;;;;;4987486;28;20216;-76
2023/06/10 07:49:57;;;;;;;3.47;2.45;;;33.30;93.50;;;;;;4999585;28;20743;-79
2023/06/10 07:52:25;;;;;;;3.40;2.70;;;33.60;93.90;;;;;;5003159;28;20193;-78
2023/06/10 07:54:52;;;;;;;3.45;2.55;;;34.40;92.50;;;;;;5003779;28;20678;-77
2023/06/10 07:57:20;;;;;;;5.00;2.45;;;34.30;92.20;;;;;;4967938;28;20189;-79
2023/06/10 07:59:47;;;;;;;2.67;2.00;;;34.90;92.50;;;;;;4997894;28;20624;-76
2023/06/10 08:02:14;;;;;;;3.22;2.38;;;34.40;90.70;;;;;;5005236;28;20203;-80
2023/06/10 08:04:41;;;;;;;4.82;2.58;;;34.80;91.10;;;;;;4970029;28;20256;-81
2023/06/10 08:07:08;;;;;;;5.85;2.08;;;35.80;90.30;;;;;;5004564;28;20192;-79
2023/06/10 08:09:35;;;;;;;4.65;2.92;;;35.50;90.60;;;;;;4998612;28;20290;-81
2023/06/10 08:12:03;;;;;;;4.35;2.40;;;35.10;89.30;;;;;;4981883;28;20197;-79
2023/06/10 08:14:30;;;;;;;4.18;2.50;;;35.30;90.40;;;;;;4983204;28;20785;-80
2023/06/10 08:16:57;;;;;;;5.75;2.60;;;35.60;90.00;;;;;;4982373;28;20197;-79
2023/06/10 08:19:25;;;;;;;6.88;2.00;;;35.20;87.10;;;;;;4982390;28;20208;-79
2023/06/10 08:21:52;;;;;;;2.28;2.00;;;34.10;87.00;;;;;;4988792;28;20212;-79
2023/06/10 08:24:19;;;;;;;4.28;2.55;;;33.80;87.90;;;;;;4983717;28;20223;-80
2023/06/10 08:26:47;;;;;;;4.15;2.50;;;32.80;86.60;;;;;;4986869;28;20207;-80
2023/06/10 08:29:14;;;;;;;6.28;2.53;;;32.60;87.70;;;;;;4984473;28;20474;-80
2023/06/10 08:31:43;;;;;;;3.85;2.25;;;33.60;88.70;;;;;;4981191;28;20209;-80
2023/06/10 08:34:11;;;;;;;4.90;2.38;;;34.10;88.70;;;;;;4948876;28;20927;-82
2023/06/10 08:36:38;;;;;;;4.00;2.45;;;35.60;87.20;;;;;;5005546;28;20283;-82
2023/06/10 08:39:07;;;;;;;4.43;2.40;;;35.60;85.70;;;;;;4990163;28;20611;-80
2023/06/10 08:41:37;;;;;;;4.72;2.40;;;34.80;85.40;;;;;;5007251;28;20219;-80
2023/06/10 08:44:27;;;;;;;3.38;2.47;;;35.80;84.60;;;;;;4988165;28;20200;-80
2023/06/10 08:47:00;;;;;;;3.88;2.60;;;35.00;84.00;;;;;;5003229;28;20289;-81
2023/06/10 08:49:33;;;;;;;2.55;2.35;;;34.70;87.50;;;;;;4985493;28;20203;-82
2023/06/10 08:52:03;;;;;;;3.53;2.40;;;34.50;84.90;;;;;;4971883;28;20201;-83
2023/06/10 08:54:37;;;;;;;3.80;2.38;;;34.50;84.00;;;;;;4987654;28;20316;-82
2023/06/10 08:57:06;;;;;;;3.42;2.45;;;34.40;83.80;;;;;;4990108;28;20249;-80
2023/06/10 08:59:34;;;;;;;4.63;2.75;;;35.10;83.10;;;;;;4987880;28;20247;-81
2023/06/10 09:02:04;;;;;;;6.72;2.63;;;34.60;82.10;;;;;;5005116;28;20651;-80
2023/06/10 09:04:31;;;;;;;4.13;2.45;;;34.20;84.20;;;;;;4975219;28;20244;-82
2023/06/10 09:07:00;;;;;;;2.97;2.67;;;35.10;82.10;;;;;;5007499;28;20984;-82
2023/06/10 09:09:32;;;;;;;3.03;2.60;;;35.30;82.10;;;;;;5008793;28;20640;-81
2023/06/10 09:11:59;;;;;;;3.53;2.47;;;34.60;80.50;;;;;;4984206;28;20213;-80
2023/06/10 09:14:30;;;;;;;4.20;2.58;;;34.60;78.90;;;;;;4972408;28;20204;-79
2023/06/10 09:16:58;;;;;;;3.67;2.83;;;34.50;82.30;;;;;;4989274;28;20201;-80
2023/06/10 09:19:26;;;;;;;3.70;2.85;;;34.80;79.80;;;;;;4993634;28;20594;-81
2023/06/10 09:21:54;;;;;;;5.03;2.78;;;35.30;79.90;;;;;;4971950;28;20722;-82
2023/06/10 09:24:23;;;;;;;3.50;2.70;;;35.20;77.90;;;;;;5003542;28;20266;-83
2023/06/10 09:27:01;;;;;;;4.25;2.90;;;34.60;79.40;;;;;;4991552;28;20204;-82
2023/06/10 09:29:29;;;;;;;2.97;2.67;;;34.70;79.40;;;;;;4983508;28;20185;-84
2023/06/10 09:31:56;;;;;;;3.20;2.90;;;35.00;78.30;;;;;;5010164;28;20185;-81
2023/06/10 09:34:26;;;;;;;3.85;3.05;;;34.80;75.60;;;;;;4992996;28;20200;-81
2023/06/10 09:36:53;;;;;;;5.40;2.70;;;34.00;78.10;;;;;;5008202;28;20203;-82
2023/06/10 09:39:21;;;;;;;3.42;2.72;;;33.90;74.90;;;;;;4992321;28;20194;-82
2023/06/10 09:41:48;;;;;;;6.18;2.92;;;33.80;78.50;;;;;;4993176;28;20236;-81
2023/06/10 09:44:18;;;;;;;3.13;2.60;;;33.80;75.90;;;;;;4993291;28;20259;-80
2023/06/10 09:46:49;;;;;;;7.35;2.70;;;34.40;76.90;;;;;;4996438;28;20193;-83
2023/06/10 09:49:17;;;;;;;7.40;2.67;;;34.90;74.70;;;;;;5011224;28;20223;-82
2023/06/10 09:51:53;;;;;;;5.03;3.25;;;34.90;74.70;;;;;;4990224;28;20189;-82
2023/06/10 09:54:21;;;;;;;4.20;2.63;;;34.20;73.70;;;;;;4998197;28;20238;-82
2023/06/10 09:56:52;;;;;;;6.18;3.08;;;34.00;76.20;;;;;;4972450;28;20308;-82
2023/06/10 09:59:32;;;;;;;5.18;2.83;;;34.50;73.80;;;;;;4997348;28;20208;-82
2023/06/10 10:02:00;;;;;;;2.83;2.60;;;34.50;72.70;;;;;;4992012;28;20562;-81
2023/06/10 10:04:28;;;;;;;3.45;2.78;;;34.40;74.00;;;;;;4990192;28;20232;-82
2023/06/10 10:06:56;;;;;;;3.70;3.20;;;34.20;94.40;;;;;;4990594;28;20667;-81
2023/06/10 10:09:23;;;;;;;3.60;2.80;;;34.60;74.80;;;;;;4992425;28;20200;-81
2023/06/10 10:11:53;;;;;;;4.07;2.80;;;35.30;72.90;;;;;;5009951;28;20189;-81
2023/06/10 10:14:21;;;;;;;6.50;3.08;;;35.10;71.20;;;;;;4976252;28;20664;-81
2023/06/10 10:16:52;;;;;;;3.20;2.90;;;34.40;71.90;;;;;;4970780;28;20197;-81
2023/06/10 10:19:30;;;;;;;6.45;3.00;;;35.30;74.00;;;;;;4974667;28;20262;-82
2023/06/10 10:22:10;;;;;;;4.25;2.88;;;35.00;70.80;;;;;;5004364;28;20294;-81
2023/06/10 10:24:48;;;;;;;5.47;2.88;;;34.50;71.70;;;;;;4998467;28;20563;-81
2023/06/10 10:27:28;;;;;;;5.15;3.13;;;34.70;72.10;;;;;;4966532;28;20205;-81
2023/06/10 10:29:58;;;;;;;3.90;2.85;;;35.40;70.40;;;;;;4981423;28;20273;-81
2023/06/10 10:32:37;;;;;;;4.15;2.78;;;35.30;68.80;;;;;;4996977;28;20212;-81
2023/06/10 10:35:08;;;;;;;4.35;2.97;;;35.30;71.20;;;;;;4988171;28;20568;-81
2023/06/10 10:37:36;;;;;;;3.83;3.03;;;34.70;67.50;;;;;;5006252;28;20200;-81
2023/06/10 10:40:04;;;;;;;4.43;3.10;;;34.30;68.50;;;;;;5008172;28;20731;-81
2023/06/10 10:42:33;;;;;;;4.72;3.17;;;34.60;68.50;;;;;;4987379;28;20504;-80
2023/06/10 10:45:00;;;;;;;4.25;3.13;;;35.10;69.90;;;;;;4981168;28;20287;-80
2023/06/10 10:47:30;;;;;;;3.60;2.78;;;34.40;66.80;;;;;;4996601;28;20204;-80
2023/06/10 10:49:59;;;;;;;3.97;3.22;;;33.90;67.20;;;;;;4988970;28;20201;-80
2023/06/10 10:52:27;;;;;;;9.18;3.25;;;33.20;67.10;;;;;;4986344;28;20204;-81
2023/06/10 10:54:55;;;;;;;5.28;3.22;;;33.80;68.50;;;;;;4979698;28;20205;-81
2023/06/10 10:57:23;;;;;;;6.22;3.42;;;34.00;67.00;;;;;;4975284;28;20591;-81
2023/06/10 11:00:01;;;;;;;3.65;2.47;;;33.80;67.80;;;;;;5003534;28;20366;-80
2023/06/10 11:02:42;;;;;;;5.07;3.35;;;34.10;67.50;;;;;;4989395;28;20189;-81
2023/06/10 11:05:13;;;;;;;8.25;3.38;;;34.00;67.80;;;;;;4990360;28;20228;-80
2023/06/10 11:08:01;;;;;;;5.07;3.20;;;33.60;67.40;;;;;;4975268;28;20561;-80
2023/06/10 11:10:33;;;;;;;4.32;3.25;;;34.00;67.00;;;;;;5007203;28;20188;-76
2023/06/10 11:13:25;;;;;;;4.03;3.05;;;34.80;65.30;;;;;;4983826;28;20529;-75
2023/06/10 11:15:56;;;;;;;4.38;2.75;;;35.50;66.30;;;;;;5000769;28;20192;-76
2023/06/10 11:18:35;;;;;;;7.45;2.70;;;33.60;65.40;;;;;;5007085;28;20728;-76
2023/06/10 11:21:06;;;;;;;3.25;2.95;;;33.30;68.20;;;;;;4976950;28;20646;-76
2023/06/10 11:23:38;;;;;;;6.13;3.22;;;33.50;71.20;;;;;;5003203;28;20232;-76
2023/06/10 11:26:34;;;;;;;2.80;2.60;;;33.50;67.30;;;;;;5004902;28;20231;-76
2023/06/10 11:29:08;;;;;;;3.95;3.08;;;33.30;67.80;;;;;;4987531;28;20189;-76
2023/06/10 11:31:44;;;;;;;6.88;3.35;;;34.10;65.90;;;;;;5006737;28;20287;-76
2023/06/10 11:34:12;;;;;;;5.65;3.15;;;34.70;65.90;;;;;;4988143;28;20214;-76
2023/06/10 11:36:42;;;;;;;3.30;3.00;;;34.50;67.10;;;;;;4987990;28;20196;-77
2023/06/10 11:39:10;;;;;;;3.75;3.03;;;34.70;64.60;;;;;;4983068;28;20608;-75
2023/06/10 11:41:39;;;;;;;4.25;3.03;;;35.00;64.30;;;;;;4985417;28;20204;-76
2023/06/10 11:44:14;;;;;;;6.93;3.33;;;34.00;64.30;;;;;;4996691;28;21907;-77
2023/06/10 11:46:48;;;;;;;4.30;2.80;;;34.20;65.50;;;;;;4990114;28;20574;-76
2023/06/10 11:49:16;;;;;;;5.10;3.53;;;34.40;73.90;;;;;;4983187;28;20563;-77
2023/06/10 11:51:51;;;;;;;5.15;2.80;;;33.50;62.90;;;;;;5014028;28;20204;-76
2023/06/10 11:54:18;;;;;;;4.65;2.90;;;33.90;63.30;;;;;;5005197;28;20227;-78
2023/06/10 11:56:47;;;;;;;6.43;3.40;;;33.60;64.20;;;;;;4985929;28;20196;-76
2023/06/10 11:59:14;;;;;;;3.92;2.85;;;33.50;63.90;;;;;;5002692;28;20219;-78
2023/06/10 12:01:43;;;;;;;4.50;3.15;;;33.20;62.60;;;;;;4986239;28;20780;-75
2023/06/10 12:04:13;;;;;;;5.93;3.13;;;32.60;65.00;;;;;;4992865;28;20242;-78
2023/06/10 12:06:48;;;;;;;5.60;3.15;;;33.30;64.40;;;;;;4984869;28;20197;-79
2023/06/10 12:09:15;;;;;;;7.85;3.53;;;32.90;65.30;;;;;;4991282;28;20235;-78
2023/06/10 12:11:53;;;;;;;4.15;2.55;;;33.20;63.20;;;;;;4971397;28;20215;-78
2023/06/10 12:14:56;;;;;;;5.47;2.90;;;33.30;64.60;;;;;;4985775;28;20205;-76
2023/06/10 12:17:30;;;;;;;5.15;3.38;;;32.50;65.60;;;;;;4986069;28;21080;-77
2023/06/10 12:19:59;;;;;;;4.50;3.20;;;32.70;65.90;;;;;;5000520;28;20224;-77
2023/06/10 12:22:26;;;;;;;6.85;3.28;;;33.20;62.10;;;;;;4985627;28;20204;-77
2023/06/10 12:25:03;;;;;;;5.72;3.20;;;33.00;63.50;;;;;;4965775;28;20573;-77
2023/06/10 12:27:31;;;;;;;3.55;3.05;;;31.90;64.50;;;;;;4989572;28;20372;-78
2023/06/10 12:30:04;;;;;;;4.25;3.15;;;31.40;64.40;;;;;;5006719;28;20714;-77
2023/06/10 12:32:40;;;;;;;3.78;3.28;;;31.80;64.40;;;;;;4999350;28;20205;-77
2023/06/10 12:35:10;;;;;;;3.95;3.10;;;31.80;64.50;;;;;;4971155;28;20188;-77
2023/06/10 12:37:41;;;;;;;3.63;3.20;;;32.00;65.30;;;;;;5002339;28;20623;-77
2023/06/10 12:40:11;;;;;;;4.03;3.35;;;31.60;64.50;;;;;;4991289;28;20207;-77
2023/06/10 12:42:39;;;;;;;4.55;3.20;;;31.40;64.50;;;;;;5020847;28;20607;-78
2023/06/10 12:45:08;;;;;;;5.25;3.53;;;30.90;65.40;;;;;;4992386;28;20921;-80
2023/06/10 12:47:38;;;;;;;7.60;3.38;;;30.50;66.50;;;;;;4992006;28;20200;-79
2023/06/10 12:50:07;;;;;;;7.05;3.38;;;30.50;65.40;;;;;;4992518;28;20311;-79
2023/06/10 12:52:36;;;;;;;4.22;3.38;;;30.90;65.40;;;;;;5010370;28;20193;-79
2023/06/10 12:55:04;;;;;;;3.70;3.40;;;31.20;68.00;;;;;;4992183;28;20227;-79
2023/06/10 12:57:31;;;;;;;3.25;2.95;;;31.00;64.90;;;;;;4977029;28;20415;-78
2023/06/10 13:00:03;;;;;;;4.18;3.28;;;31.10;66.30;;;;;;4991171;28;20329;-78